createdAt,value
2023-02-05T00:03:52.800Z,102505.34
2023-02-05T00:08:56.969Z,102490.97
2023-02-05T00:14:01.061Z,102507.47
2023-02-05T00:19:04.113Z,102515.47
2023-02-05T00:24:07.646Z,102509.72
2023-02-05T00:29:11.718Z,102505.63
2023-02-05T00:34:15.885Z,102508.50
2023-02-05T00:39:19.159Z,102512.19
2023-02-05T00:44:24.820Z,102518.19
2023-02-05T00:49:27.764Z,102522.44
2023-02-05T00:54:30.517Z,102516.38
2023-02-05T00:59:34.695Z,102516.38
2023-02-05T01:04:37.434Z,102519.00
2023-02-05T01:09:40.488Z,102520.00
2023-02-05T01:14:44.703Z,102514.75
2023-02-05T01:19:47.486Z,102506.38
2023-02-05T01:24:50.227Z,102492.63
2023-02-05T01:29:54.339Z,102489.88
2023-02-05T01:34:57.264Z,102486.63
2023-02-05T01:40:00.107Z,102471.75
2023-02-05T01:45:50.900Z,102456.41
2023-02-05T01:50:57.077Z,102447.00
2023-02-05T01:56:01.669Z,102430.16
2023-02-05T02:01:05.988Z,102411.06
2023-02-05T02:06:09.006Z,102408.78
2023-02-05T02:11:17.072Z,102394.34
2023-02-05T02:16:21.683Z,102400.31
2023-02-05T02:21:39.278Z,102389.09
2023-02-05T02:26:57.695Z,102383.25
2023-02-05T02:32:04.955Z,102384.28
2023-02-05T02:37:09.675Z,102389.47
2023-02-05T02:42:16.073Z,102380.72
2023-02-05T02:47:22.998Z,102367.91
2023-02-05T02:52:26.921Z,102360.41
2023-02-05T02:57:30.708Z,102367.50
2023-02-05T03:02:37.534Z,102369.19
2023-02-05T03:07:42.744Z,102374.53
2023-02-05T03:12:46.540Z,102370.53
2023-02-05T03:17:51.867Z,102370.31
2023-02-05T03:22:56.007Z,102364.09
2023-02-05T03:27:59.166Z,102351.22
2023-02-05T03:33:14.911Z,102346.41
2023-02-05T03:38:29.711Z,102360.25
2023-02-05T03:43:41.181Z,102359.47
2023-02-05T03:48:56.407Z,102340.75
2023-02-05T03:54:05.758Z,102335.94
2023-02-05T03:59:09.973Z,102326.91
2023-02-05T04:04:14.440Z,102324.22
2023-02-05T04:09:17.334Z,102330.25
2023-02-05T04:14:20.230Z,102350.25
2023-02-05T04:19:24.543Z,102344.97
2023-02-05T04:24:29.656Z,102344.88
2023-02-05T04:29:32.619Z,102336.03
2023-02-05T04:34:36.903Z,102361.28
2023-02-05T04:39:41.746Z,102365.00
2023-02-05T04:44:44.511Z,102366.53
2023-02-05T04:49:48.620Z,102350.03
2023-02-05T04:54:51.424Z,102361.28
2023-02-05T04:59:54.204Z,102369.75
2023-02-05T05:04:58.333Z,102377.50
2023-02-05T05:10:01.054Z,102381.00
2023-02-05T05:15:04.019Z,102375.06
2023-02-05T05:20:09.011Z,102362.31
2023-02-05T05:25:11.689Z,102359.06
2023-02-05T05:30:14.980Z,102356.44
2023-02-05T05:35:19.114Z,102368.50
2023-02-05T05:40:39.492Z,102365.16
2023-02-05T05:45:42.302Z,102369.53
2023-02-05T05:50:46.597Z,102373.13
2023-02-05T05:55:49.516Z,102372.16
2023-02-05T06:00:52.224Z,102367.19
2023-02-05T06:05:56.393Z,102370.44
2023-02-05T06:10:59.721Z,102361.78
2023-02-05T06:16:02.633Z,102360.59
2023-02-05T06:21:07.078Z,102351.16
2023-02-05T06:26:09.806Z,102353.66
2023-02-05T06:31:12.699Z,102346.53
2023-02-05T06:36:16.842Z,102348.69
2023-02-05T06:41:19.676Z,102344.50
2023-02-05T06:46:22.426Z,102347.19
2023-02-05T06:51:26.610Z,102347.19
2023-02-05T06:56:29.465Z,102343.53
2023-02-05T07:01:32.291Z,102354.63
2023-02-05T07:06:36.549Z,102354.44
2023-02-05T07:11:39.488Z,102361.22
2023-02-05T07:16:42.373Z,102345.38
2023-02-05T07:21:46.414Z,102348.66
2023-02-05T07:26:49.076Z,102349.56
2023-02-05T07:31:52.401Z,102351.16
2023-02-05T07:36:56.678Z,102343.13
2023-02-05T07:41:59.520Z,102343.59
2023-02-05T07:47:10.808Z,102339.75
2023-02-05T07:52:15.055Z,102332.78
2023-02-05T07:57:17.777Z,102336.38
2023-02-05T08:02:20.518Z,102312.94
2023-02-05T08:07:24.542Z,102311.94
2023-02-05T08:12:27.348Z,102301.16
2023-02-05T08:17:30.123Z,102301.78
2023-02-05T08:22:35.668Z,102301.94
2023-02-05T08:27:39.332Z,102295.59
2023-02-05T08:32:42.061Z,102294.50
2023-02-05T08:37:46.155Z,102279.44
2023-02-05T08:42:52.540Z,102270.78
2023-02-05T08:47:55.643Z,102274.03
2023-02-05T08:52:59.766Z,102270.50
2023-02-05T08:58:02.582Z,102279.44
2023-02-05T09:03:06.585Z,102258.56
2023-02-05T09:08:10.733Z,102249.59
2023-02-05T09:13:13.536Z,102244.34
2023-02-05T09:18:16.494Z,102240.84
2023-02-05T09:23:21.113Z,102244.09
2023-02-05T09:28:23.902Z,102237.16
2023-02-05T09:33:26.652Z,102231.31
2023-02-05T09:38:30.886Z,102246.44
2023-02-05T09:43:46.641Z,102240.03
2023-02-05T09:48:51.200Z,102232.09
2023-02-05T09:53:58.986Z,102226.50
2023-02-05T09:59:01.925Z,102227.41
2023-02-05T10:04:06.178Z,102220.13
2023-02-05T10:09:23.208Z,102224.91
2023-02-05T10:14:36.656Z,102227.97
2023-02-05T10:20:07.266Z,102221.03
2023-02-05T10:25:50.082Z,102211.47
2023-02-05T10:30:57.157Z,102216.53
2023-02-05T10:36:02.393Z,102221.78
2023-02-05T10:41:08.878Z,102217.53
2023-02-05T10:46:14.307Z,102215.31
2023-02-05T10:51:18.171Z,102208.03
2023-02-05T10:56:21.898Z,102212.16
2023-02-05T11:01:31.456Z,102189.25
2023-02-05T11:06:38.503Z,102181.19
2023-02-05T11:11:41.369Z,102175.50
2023-02-05T11:16:46.569Z,102171.81
2023-02-05T11:21:52.754Z,102164.09
2023-02-05T11:27:16.666Z,102159.41
2023-02-05T11:32:22.024Z,102148.25
2023-02-05T11:37:24.877Z,102152.81
2023-02-05T11:42:27.702Z,102138.06
2023-02-05T11:47:33.853Z,102141.34
2023-02-05T11:52:38.440Z,102150.16
2023-02-05T11:57:41.871Z,102131.16
2023-02-05T12:02:49.978Z,102127.56
2023-02-05T12:07:56.675Z,102138.56
2023-02-05T12:13:04.805Z,102137.53
2023-02-05T12:18:17.947Z,102135.31
2023-02-05T12:23:32.937Z,102135.16
2023-02-05T12:28:43.128Z,102126.41
2023-02-05T12:34:00.349Z,102137.28
2023-02-05T12:39:14.164Z,102131.03
2023-02-05T12:44:32.291Z,102130.66
2023-02-05T12:49:50.827Z,102141.00
2023-02-05T12:55:02.655Z,102136.53
2023-02-05T13:00:07.987Z,102137.38
2023-02-05T13:05:21.015Z,102129.31
2023-02-05T13:10:25.571Z,102128.25
2023-02-05T13:15:29.930Z,102114.94
2023-02-05T13:20:56.404Z,102127.94
2023-02-05T13:26:17.109Z,102133.09
2023-02-05T13:31:25.713Z,102141.88
2023-02-05T13:37:05.521Z,102149.00
2023-02-05T13:42:24.413Z,102147.53
2023-02-05T13:47:41.004Z,102146.16
2023-02-05T13:53:01.868Z,102146.19
2023-02-05T13:58:20.477Z,102140.16
2023-02-05T14:03:29.547Z,102141.38
2023-02-05T14:08:38.454Z,102146.50
2023-02-05T14:13:41.454Z,102156.09
2023-02-05T14:18:51.178Z,102167.28
2023-02-05T14:23:59.859Z,102167.84
2023-02-05T14:29:02.652Z,102166.19
2023-02-05T14:34:56.010Z,102164.69
2023-02-05T14:40:00.782Z,102173.72
2023-02-05T14:45:04.966Z,102169.72
2023-02-05T14:50:10.663Z,102183.56
2023-02-05T14:55:20.799Z,102161.22
2023-02-05T15:00:34.953Z,102161.44
2023-02-05T15:05:42.062Z,102154.84
2023-02-05T15:10:51.032Z,102148.94
2023-02-05T15:16:21.124Z,102147.66
2023-02-05T15:21:26.707Z,102153.16
2023-02-05T15:26:35.666Z,102149.63
2023-02-05T15:31:43.037Z,102148.22
2023-02-05T15:36:51.236Z,102153.22
2023-02-05T15:41:57.425Z,102158.06
2023-02-05T15:47:02.208Z,102171.78
2023-02-05T15:52:06.262Z,102186.47
2023-02-05T15:57:18.926Z,102200.81
2023-02-05T16:02:23.376Z,102221.94
2023-02-05T16:07:27.905Z,102231.19
2023-02-05T16:12:32.472Z,102247.44
2023-02-05T16:17:38.842Z,102247.09
2023-02-05T16:22:44.231Z,102254.06
2023-02-05T16:27:50.865Z,102253.66
2023-02-05T16:32:54.884Z,102259.13
2023-02-05T16:37:57.923Z,102274.53
2023-02-05T16:43:19.931Z,102286.31
2023-02-05T16:48:24.030Z,102281.25
2023-02-05T16:53:28.444Z,102288.38
2023-02-05T16:58:37.437Z,102283.19
2023-02-05T17:03:42.062Z,102292.06
2023-02-05T17:08:52.428Z,102293.28
2023-02-05T17:14:12.232Z,102293.41
2023-02-05T17:19:24.294Z,102291.03
2023-02-05T17:24:27.256Z,102290.22
2023-02-05T17:29:31.856Z,102302.53
2023-02-05T17:34:34.608Z,102313.56
2023-02-05T17:39:37.337Z,102293.75
2023-02-05T17:44:41.490Z,102302.56
2023-02-05T17:49:44.405Z,102287.41
2023-02-05T17:54:47.214Z,102286.69
2023-02-05T17:59:52.570Z,102287.50
2023-02-05T18:04:55.361Z,102278.16
2023-02-05T18:09:59.351Z,102284.31
2023-02-05T18:15:03.971Z,102291.25
2023-02-05T18:20:08.575Z,102296.41
2023-02-05T18:25:11.329Z,102290.50
2023-02-05T18:30:15.894Z,102298.13
2023-02-05T18:35:18.938Z,102310.44
2023-02-05T18:40:21.666Z,102321.53
2023-02-05T18:45:25.819Z,102322.66
2023-02-05T18:50:30.113Z,102333.13
2023-02-05T18:55:35.452Z,102336.53
2023-02-05T19:00:39.605Z,102335.59
2023-02-05T19:05:42.403Z,102345.28
2023-02-05T19:10:45.112Z,102345.34
2023-02-05T19:15:54.006Z,102360.28
2023-02-05T19:20:56.742Z,102361.34
2023-02-05T19:26:03.572Z,102362.16
2023-02-05T19:31:09.136Z,102363.31
2023-02-05T19:36:12.641Z,102368.66
2023-02-05T19:41:17.068Z,102367.69
2023-02-05T19:46:23.337Z,102359.69
2023-02-05T19:51:26.185Z,102359.88
2023-02-05T19:56:28.876Z,102370.59
2023-02-05T20:01:36.257Z,102387.34
2023-02-05T20:06:40.270Z,102388.28
2023-02-05T20:11:44.456Z,102382.13
2023-02-05T20:16:48.635Z,102379.41
2023-02-05T20:21:52.224Z,102392.63
2023-02-05T20:26:56.787Z,102396.78
2023-02-05T20:32:01.907Z,102386.41
2023-02-05T20:37:07.295Z,102395.50
2023-02-05T20:42:14.105Z,102394.25
2023-02-05T20:47:18.155Z,102387.91
2023-02-05T20:52:20.990Z,102381.88
2023-02-05T20:57:23.746Z,102383.03
2023-02-05T21:02:27.989Z,102399.50
2023-02-05T21:07:30.742Z,102403.69
2023-02-05T21:12:33.537Z,102409.97
2023-02-05T21:17:37.925Z,102414.28
2023-02-05T21:22:40.818Z,102421.97
2023-02-05T21:27:43.720Z,102425.75
2023-02-05T21:32:47.853Z,102433.31
2023-02-05T21:37:50.632Z,102448.69
2023-02-05T21:42:53.378Z,102448.00
2023-02-05T21:47:57.462Z,102461.88
2023-02-05T21:53:00.195Z,102474.81
2023-02-05T21:58:03.015Z,102477.19
2023-02-05T22:03:07.082Z,102484.81
2023-02-05T22:08:11.865Z,102486.50
2023-02-05T22:13:14.873Z,102478.75
2023-02-05T22:18:19.316Z,102483.06
2023-02-05T22:23:22.115Z,102503.03
2023-02-05T22:28:25.033Z,102503.25
2023-02-05T22:33:30.619Z,102523.94
2023-02-05T22:38:34.647Z,102521.31
2023-02-05T22:43:37.681Z,102505.84
2023-02-05T22:48:43.218Z,102505.00
2023-02-05T22:53:45.977Z,102516.59
2023-02-05T22:58:49.759Z,102502.78
2023-02-05T23:03:54.123Z,102499.44
2023-02-05T23:08:58.637Z,102511.59
2023-02-05T23:14:03.177Z,102515.22
2023-02-05T23:19:09.058Z,102524.69
2023-02-05T23:24:12.455Z,102515.94
2023-02-05T23:29:16.538Z,102522.59
2023-02-05T23:34:20.634Z,102519.28
2023-02-05T23:39:23.399Z,102513.31
2023-02-05T23:44:26.316Z,102522.66
2023-02-05T23:49:30.462Z,102509.75
2023-02-05T23:54:33.152Z,102502.09
2023-02-05T23:59:35.982Z,102494.44
